Time;durP1;ratioP1;P1;durP2;ratioP2;P2;SDS_P1;SDS_P2;PMS_P1;PMS_P2;Temp;Humidity;BMP_temperature;BMP_pressure;BME280_temperature;BME280_humidity;BME280_pressure;Samples;Min_cycle;Max_cycle;Signal;HPM_P1;HPM_P2
2022/06/01 08:41:05;;;;;;;4.22;1.10;;;;;;;21.44;33.38;96358.75;2085478;28;20560;-58
2022/06/01 08:44:38;;;;;;;1.73;0.70;;;;;;;21.34;32.35;96367.59;2085533;28;20549;-58
2022/06/01 09:01:47;;;;;;;1.75;0.90;;;;;;;21.39;32.31;96368.97;2078377;28;20933;-61
2022/06/01 09:10:24;;;;;;;6.60;1.10;;;;;;;21.26;31.93;96387.88;2083936;28;21249;-60
2022/06/01 09:11:33;;;;;;;6.47;0.80;;;;;;;21.40;32.32;96390.06;2071673;28;20251;-60
2022/06/01 09:12:36;;;;;;;5.57;1.00;;;;;;;21.10;31.83;96386.59;2074487;28;20209;-60
2022/06/01 09:14:44;;;;;;;3.55;1.17;;;;;;;20.86;32.05;96387.88;2100742;27;20548;-61
2022/06/01 09:16:08;;;;;;;2.88;1.08;;;;;;;20.94;31.90;96388.97;2099662;28;20642;-61
2022/06/01 09:17:10;;;;;;;5.57;0.95;;;;;;;20.88;31.79;96387.72;2084187;28;20692;-61
2022/06/01 09:18:13;;;;;;;4.78;0.90;;;;;;;21.36;30.95;96389.50;2076731;28;20193;-60
2022/06/01 09:23:39;;;;;;;2.50;0.90;;;;;;;21.42;31.14;96377.50;2099370;28;20826;-59
2022/06/01 09:24:41;;;;;;;1.30;0.80;;;;;;;21.23;31.15;96373.06;2091564;28;20782;-59
2022/06/01 09:25:53;;;;;;;2.45;0.90;;;;;;;21.08;31.98;96387.72;2093046;28;20230;-59
2022/06/01 09:26:58;;;;;;;2.67;0.80;;;;;;;21.21;32.16;96375.00;2088661;28;20226;-59
2022/06/01 09:28:04;;;;;;;2.30;1.15;;;;;;;21.65;31.38;96375.38;2109675;28;20202;-58
2022/06/01 09:29:05;;;;;;;2.47;1.00;;;;;;;21.52;31.41;96375.66;2093605;28;20196;-59
2022/06/01 09:30:21;;;;;;;4.65;0.90;;;;;;;21.14;31.28;96376.53;2090979;28;20197;-59
2022/06/01 09:31:33;;;;;;;7.85;1.70;;;;;;;21.15;32.32;96384.38;2087593;28;20196;-59
2022/06/01 09:32:40;;;;;;;1.85;1.00;;;;;;;20.78;31.59;96378.94;2087827;28;20213;-60
2022/06/01 09:36:31;;;;;;;4.40;1.20;;;;;;;20.92;32.11;96393.59;2083038;28;20546;-62
2022/06/01 09:37:39;;;;;;;6.72;1.92;;;;;;;21.24;31.60;96403.91;2075019;28;20201;-62
2022/06/01 09:38:47;;;;;;;2.63;0.95;;;;;;;21.24;31.71;96409.22;2077791;28;20194;-62
2022/06/01 09:40:24;;;;;;;1.25;1.00;;;;;;;21.53;31.19;96395.94;2078070;28;20212;-62
2022/06/01 09:41:36;;;;;;;2.60;1.10;;;;;;;21.95;31.62;96391.22;2067995;28;20197;-62
2022/06/01 09:42:40;;;;;;;3.45;1.40;;;;;;;22.20;30.75;96399.53;2080370;28;20691;-63
2022/06/01 09:43:49;;;;;;;2.95;1.00;;;;;;;21.84;30.84;96403.69;2079651;28;20199;-63
2022/06/01 09:44:54;;;;;;;4.20;1.13;;;;;;;21.85;30.68;96397.41;2076702;28;20193;-63
2022/06/01 09:45:56;;;;;;;2.08;0.95;;;;;;;22.00;30.46;96403.09;2077913;28;20194;-63
2022/06/01 09:47:00;;;;;;;7.93;2.55;;;;;;;21.70;31.84;96388.22;2069485;28;20227;-62
2022/06/01 09:48:23;;;;;;;2.42;1.30;;;;;;;22.11;30.63;96403.91;2081293;28;20209;-62
2022/06/01 09:49:31;;;;;;;2.40;1.00;;;;;;;21.82;30.80;96402.19;2077364;28;20204;-60
2022/06/01 09:50:34;;;;;;;2.40;0.95;;;;;;;21.62;31.31;96393.41;2074799;28;20556;-61
2022/06/01 09:51:39;;;;;;;2.90;1.15;;;;;;;21.44;31.60;96401.25;2070040;28;20201;-60
2022/06/01 09:52:42;;;;;;;2.08;1.13;;;;;;;20.95;31.79;96390.66;2085964;28;20715;-60
2022/06/01 09:54:12;;;;;;;6.53;1.08;;;;;;;21.19;32.41;96404.34;2083640;28;20231;-63
2022/06/01 09:55:13;;;;;;;1.92;0.95;;;;;;;21.23;31.50;96398.75;2076174;28;20221;-60
2022/06/01 09:56:29;;;;;;;1.88;0.80;;;;;;;21.05;32.34;96399.44;2078124;28;20698;-61
2022/06/01 09:57:38;;;;;;;1.95;1.00;;;;;;;21.77;31.62;96401.78;2076717;28;20216;-60
2022/06/01 10:06:31;;;;;;;2.25;0.70;;;;;;;21.91;28.57;96406.59;2078047;28;20200;-61
2022/06/01 10:07:33;;;;;;;1.80;0.95;;;;;;;22.08;28.49;96394.38;2077522;28;20606;-61
2022/06/01 10:08:42;;;;;;;2.45;0.98;;;;;;;22.43;28.58;96402.66;2072790;28;20817;-61
2022/06/01 10:09:50;;;;;;;2.15;0.90;;;;;;;22.26;29.07;96393.59;2077749;28;20223;-61
2022/06/01 10:11:05;;;;;;;2.08;1.33;;;;;;;22.72;29.22;96393.66;2077879;28;20201;-61
2022/06/01 10:12:28;;;;;;;1.65;0.88;;;;;;;23.06;29.54;96382.31;2073237;28;20246;-62
2022/06/01 10:13:50;;;;;;;2.75;1.30;;;;;;;22.59;29.72;96394.84;2084396;28;20196;-60
2022/06/01 10:14:54;;;;;;;1.42;0.95;;;;;;;22.07;29.78;96398.03;2075800;28;20193;-61
2022/06/01 10:16:00;;;;;;;4.25;0.90;;;;;;;22.53;30.73;96402.59;2074098;28;20197;-61
2022/06/01 10:17:16;;;;;;;5.53;1.20;;;;;;;22.27;29.20;96371.34;2074957;28;20858;-61
2022/06/01 10:18:27;;;;;;;4.28;1.23;;;;;;;22.48;29.56;96398.53;2075345;28;21119;-60
2022/06/01 10:19:39;;;;;;;7.70;3.92;;;;;;;22.56;29.65;96391.66;2074560;28;20193;-62
2022/06/01 10:20:48;;;;;;;14.45;3.92;;;;;;;22.86;29.60;96398.44;2077608;28;20201;-64
2022/06/01 10:22:14;;;;;;;4.80;1.90;;;;;;;23.07;29.04;96397.28;2069564;28;20237;-61
2022/06/01 10:23:26;;;;;;;1.48;0.82;;;;;;;22.50;28.54;96398.41;2082669;28;20201;-62
2022/06/01 10:24:46;;;;;;;2.47;1.45;;;;;;;22.46;28.98;96402.34;2077328;28;20204;-63
2022/06/01 10:25:58;;;;;;;1.95;0.80;;;;;;;22.32;29.09;96404.50;2077652;28;20672;-62
2022/06/01 10:27:02;;;;;;;4.40;1.10;;;;;;;21.61;29.72;96397.91;2071896;28;20785;-61
2022/06/01 10:28:10;;;;;;;4.10;1.23;;;;;;;21.64;29.56;96397.59;2083255;28;20196;-61
2022/06/01 10:29:45;;;;;;;1.67;1.23;;;;;;;22.14;29.69;96398.28;2077789;28;20205;-62
2022/06/01 10:30:51;;;;;;;1.50;0.88;;;;;;;22.02;29.87;96403.78;2076958;28;20202;-62
2022/06/01 10:32:01;;;;;;;3.83;1.35;;;;;;;22.03;30.71;96401.97;2070760;28;20799;-62
2022/06/01 10:33:09;;;;;;;2.05;1.30;;;;;;;22.05;30.72;96391.19;2083533;28;20196;-63
2022/06/01 10:34:17;;;;;;;6.63;1.42;;;;;;;22.16;30.64;96404.28;2078469;28;20213;-62
2022/06/01 10:35:40;;;;;;;7.80;1.77;;;;;;;22.35;30.65;96395.38;2076593;28;20709;-63
2022/06/01 10:36:48;;;;;;;2.83;1.02;;;;;;;22.69;30.22;96405.44;2076743;28;20205;-63
2022/06/01 10:37:56;;;;;;;1.40;0.80;;;;;;;22.51;29.57;96392.09;2077351;28;20208;-62
2022/06/01 10:39:17;;;;;;;1.33;0.80;;;;;;;22.83;29.80;96394.25;2076921;28;20209;-63
2022/06/01 10:40:45;;;;;;;3.53;1.10;;;;;;;22.76;29.64;96400.34;2074595;28;20237;-61
2022/06/01 10:41:52;;;;;;;4.05;1.30;;;;;;;22.89;29.30;96403.44;2068614;28;20220;-63
2022/06/01 10:43:21;;;;;;;2.85;1.00;;;;;;;23.03;29.17;96402.09;2084431;28;20197;-63
2022/06/01 10:44:35;;;;;;;1.38;0.80;;;;;;;22.67;28.75;96399.41;2077220;28;20786;-62
2022/06/01 10:45:45;;;;;;;1.58;0.95;;;;;;;22.57;28.76;96399.47;2076442;28;20204;-62
2022/06/01 10:46:57;;;;;;;2.10;1.15;;;;;;;22.96;29.31;96404.53;2069245;28;20319;-63
2022/06/01 10:48:11;;;;;;;1.60;1.10;;;;;;;22.87;29.00;96397.47;2077958;28;20200;-63
2022/06/01 10:49:22;;;;;;;1.75;1.08;;;;;;;23.30;29.08;96403.03;2073480;28;20227;-63
2022/06/01 10:50:30;;;;;;;3.90;1.00;;;;;;;23.34;28.20;96403.53;2070178;28;20199;-63
2022/06/01 10:51:34;;;;;;;2.50;0.90;;;;;;;22.67;28.99;96404.75;2062891;28;20247;-62
2022/06/01 10:53:03;;;;;;;2.53;1.10;;;;;;;22.96;29.10;96401.88;2076531;28;20200;-62
2022/06/01 10:54:26;;;;;;;0.90;0.75;;;;;;;23.06;28.97;96398.28;2073525;28;20233;-63
2022/06/01 10:55:36;;;;;;;4.18;2.35;;;;;;;22.71;29.73;96395.47;2072152;28;20227;-60
2022/06/01 10:56:39;;;;;;;2.05;1.10;;;;;;;22.55;30.05;96397.94;2067554;28;20206;-61
2022/06/01 10:57:46;;;;;;;4.55;1.35;;;;;;;22.22;30.00;96411.69;2071030;28;20719;-64
2022/06/01 10:58:50;;;;;;;2.38;1.15;;;;;;;22.45;30.69;96404.16;2071798;28;20748;-61
2022/06/01 10:59:52;;;;;;;1.98;1.00;;;;;;;22.57;30.29;96403.97;2070270;28;20228;-61
2022/06/01 11:01:31;;;;;;;1.25;0.88;;;;;;;22.38;30.78;96399.59;2071809;28;20201;-61
2022/06/01 11:02:45;;;;;;;3.67;1.30;;;;;;;22.38;31.40;96404.91;2068355;28;20210;-61
2022/06/01 11:03:58;;;;;;;2.17;1.10;;;;;;;22.48;31.09;96403.84;2069445;28;20206;-61
2022/06/01 11:05:23;;;;;;;1.90;1.10;;;;;;;22.92;30.25;96402.31;2071072;28;20209;-61
2022/06/01 11:06:56;;;;;;;2.25;1.10;;;;;;;22.47;30.03;96404.00;2062585;28;20220;-61
2022/06/01 11:08:06;;;;;;;2.90;0.93;;;;;;;22.69;31.03;96401.91;2070726;28;20209;-61
2022/06/01 11:09:30;;;;;;;2.60;1.08;;;;;;;22.55;30.31;96395.28;2072921;28;20216;-61
2022/06/01 11:10:42;;;;;;;4.45;1.63;;;;;;;23.20;29.70;96397.78;2072127;28;20193;-61
2022/06/01 11:12:14;;;;;;;5.20;0.75;;;;;;;23.36;29.50;96394.41;2060726;28;20716;-61
2022/06/01 11:13:28;;;;;;;3.90;1.10;;;;;;;22.27;29.60;96388.16;2078561;28;20213;-62
2022/06/01 11:14:46;;;;;;;2.15;0.85;;;;;;;22.31;30.07;96384.19;2069520;28;20228;-61
2022/06/01 11:16:20;;;;;;;2.13;1.00;;;;;;;22.49;29.78;96394.06;2069440;28;20202;-61
2022/06/01 11:17:34;;;;;;;4.13;0.90;;;;;;;22.60;29.93;96396.53;2068922;28;20221;-61
2022/06/01 11:18:54;;;;;;;2.72;1.10;;;;;;;22.66;29.82;96393.28;2071243;28;20216;-61
2022/06/01 11:20:17;;;;;;;3.60;1.20;;;;;;;23.03;29.59;96391.44;2071514;28;20247;-61
2022/06/01 11:21:30;;;;;;;2.97;1.20;;;;;;;23.21;30.24;96399.47;2069616;28;20208;-61
2022/06/01 11:23:06;;;;;;;1.85;1.10;;;;;;;23.03;29.61;96388.78;2068625;28;20244;-61
2022/06/01 11:24:19;;;;;;;1.15;0.90;;;;;;;22.72;30.05;96391.00;2071487;28;20212;-62
2022/06/01 11:25:55;;;;;;;1.55;1.00;;;;;;;23.20;29.72;96395.13;2070638;28;20206;-61
2022/06/01 11:27:09;;;;;;;4.35;1.30;;;;;;;23.06;28.81;96387.63;2063698;28;20734;-60
2022/06/01 11:28:19;;;;;;;2.40;0.90;;;;;;;23.56;29.13;96389.72;2077895;28;20205;-61
2022/06/01 11:29:47;;;;;;;5.85;0.95;;;;;;;23.58;28.76;96384.22;2071075;28;20193;-61
2022/06/01 11:30:57;;;;;;;9.02;1.67;;;;;;;24.21;27.97;96385.78;2066364;28;20206;-61
2022/06/01 11:32:04;;;;;;;3.38;1.20;;;;;;;23.86;28.65;96386.75;2063321;28;20226;-60
2022/06/01 11:33:20;;;;;;;5.32;1.20;;;;;;;23.74;28.44;96387.00;2076243;28;20193;-60
2022/06/01 11:34:51;;;;;;;1.92;0.93;;;;;;;23.49;29.32;96378.03;2070637;28;20202;-61
2022/06/01 11:36:09;;;;;;;3.10;2.30;;;;;;;22.67;30.39;96381.63;2071133;28;20232;-60
2022/06/01 11:37:21;;;;;;;6.03;3.25;;;;;;;22.93;30.49;96380.03;2071850;28;20233;-60
2022/06/01 11:38:35;;;;;;;3.72;2.45;;;;;;;23.22;30.53;96384.31;2073883;28;20637;-60
2022/06/01 11:40:13;;;;;;;1.65;1.30;;;;;;;23.58;30.05;96374.44;2074939;28;20193;-60
2022/06/01 11:41:24;;;;;;;3.38;1.40;;;;;;;24.06;29.84;96376.72;2072409;28;20201;-61
2022/06/01 11:42:35;;;;;;;1.45;0.88;;;;;;;23.71;29.52;96370.50;2069041;28;20249;-60
2022/06/01 11:44:00;;;;;;;1.25;0.90;;;;;;;23.26;29.81;96383.88;2069213;28;20205;-60
2022/06/01 11:45:22;;;;;;;2.38;1.05;;;;;;;22.94;30.10;96381.72;2063680;28;20581;-60
2022/06/01 11:46:45;;;;;;;2.45;1.20;;;;;;;23.78;30.08;96385.72;2061354;28;20209;-60
2022/06/01 11:47:52;;;;;;;3.50;1.17;;;;;;;23.89;29.88;96384.59;2043847;29;20208;-60
2022/06/01 11:49:00;;;;;;;2.42;1.08;;;;;;;24.14;29.47;96374.09;2069204;28;20226;-60
2022/06/01 11:50:24;;;;;;;1.60;1.20;;;;;;;24.71;29.11;96384.16;2070623;28;20205;-59
2022/06/01 11:51:46;;;;;;;1.40;0.90;;;;;;;25.25;28.85;96382.88;2060694;28;20252;-63
2022/06/01 11:52:56;;;;;;;3.85;1.00;;;;;;;24.96;28.57;96384.16;2076772;28;20519;-59
2022/06/01 11:54:04;;;;;;;1.98;1.00;;;;;;;25.20;28.51;96382.53;2068281;28;20197;-60
2022/06/01 11:55:05;;;;;;;2.42;1.05;;;;;;;25.25;28.05;96375.69;2070887;28;20194;-61
2022/06/01 11:56:25;;;;;;;3.55;1.45;;;;;;;24.90;28.44;96374.16;2070313;28;20194;-61
2022/06/01 11:57:38;;;;;;;2.35;1.23;;;;;;;24.85;28.37;96380.00;2068251;28;20222;-61
2022/06/01 11:58:43;;;;;;;2.85;0.98;;;;;;;24.54;28.25;96375.22;2071082;28;20205;-63
2022/06/01 12:00:13;;;;;;;1.38;1.15;;;;;;;24.16;28.60;96371.25;2070479;28;20260;-64
2022/06/01 12:01:31;;;;;;;1.30;1.00;;;;;;;23.94;30.18;96373.50;2072031;28;20557;-60
2022/06/01 12:02:41;;;;;;;2.95;0.90;;;;;;;23.84;30.74;96368.25;2069532;28;20809;-60
2022/06/01 12:04:11;;;;;;;1.52;1.05;;;;;;;23.61;30.19;96370.63;2067625;28;20297;-61
2022/06/01 12:05:39;;;;;;;2.25;0.98;;;;;;;23.38;30.21;96370.31;2070095;28;20190;-61
2022/06/01 12:06:57;;;;;;;2.78;1.20;;;;;;;23.75;30.83;96377.19;2062433;28;20205;-61
2022/06/01 12:08:06;;;;;;;2.60;1.13;;;;;;;23.85;30.93;96374.44;2076637;28;20200;-61
2022/06/01 12:09:16;;;;;;;1.90;1.00;;;;;;;23.96;30.13;96371.53;2070384;28;20550;-61
2022/06/01 12:10:18;;;;;;;2.35;1.35;;;;;;;23.98;29.75;96371.34;2071638;28;20657;-61
2022/06/01 12:11:43;;;;;;;6.25;1.58;;;;;;;23.30;30.12;96373.75;2067699;28;20194;-61
2022/06/01 12:12:57;;;;;;;2.38;1.10;;;;;;;23.17;31.54;96379.44;2064972;28;20222;-61
2022/06/01 12:13:58;;;;;;;2.03;1.10;;;;;;;22.76;30.81;96371.06;2068009;28;20785;-61
2022/06/01 12:15:19;;;;;;;3.05;1.10;;;;;;;22.69;31.46;96373.50;2068625;28;20237;-61
2022/06/01 12:16:28;;;;;;;2.00;1.02;;;;;;;22.70;31.90;96380.47;2071276;28;20194;-62
2022/06/01 12:17:35;;;;;;;7.32;1.45;;;;;;;22.69;31.46;96376.16;2068511;28;20234;-62
2022/06/01 12:18:36;;;;;;;2.70;1.17;;;;;;;22.92;31.25;96368.56;2069812;28;20662;-62
2022/06/01 12:19:44;;;;;;;2.47;1.10;;;;;;;23.36;31.46;96375.75;2068911;28;20197;-62
2022/06/01 12:20:52;;;;;;;3.75;1.27;;;;;;;23.20;30.99;96363.16;2071604;28;20205;-62
2022/06/01 12:28:30;;;;;;;1.52;0.95;;;;;;;22.63;32.20;96372.25;2064205;28;20659;-62
2022/06/01 12:28:55;;;;;;;2.88;1.20;;;;;;;22.25;34.16;96368.81;2069384;28;20198;-62
2022/06/01 12:30:04;;;;;;;4.00;1.40;;;;;;;22.22;33.70;96366.47;2066749;28;20194;-62
2022/06/01 12:31:32;;;;;;;3.17;1.42;;;;;;;22.18;33.79;96365.06;2068637;28;20205;-62
2022/06/01 12:32:59;;;;;;;2.55;1.25;;;;;;;22.09;34.24;96365.97;2070895;28;20240;-62
2022/06/01 12:34:03;;;;;;;4.50;1.20;;;;;;;22.23;34.14;96362.81;2071533;28;20615;-62
2022/06/01 12:35:16;;;;;;;7.63;1.20;;;;;;;22.34;33.49;96375.09;2069203;28;20221;-62
2022/06/01 12:36:20;;;;;;;3.90;1.83;;;;;;;22.15;33.60;96347.59;2073343;28;20229;-62
2022/06/01 12:37:30;;;;;;;5.25;1.45;;;;;;;22.11;33.43;96366.69;2064448;28;20572;-62
2022/06/01 12:38:37;;;;;;;4.47;1.60;;;;;;;22.28;33.30;96365.88;2078091;28;20593;-62
2022/06/01 12:39:38;;;;;;;22.45;1.30;;;;;;;22.52;33.53;96369.81;2071428;28;20208;-62
2022/06/01 12:40:40;;;;;;;4.95;1.60;;;;;;;22.48;33.61;96365.78;2070881;28;20206;-63
2022/06/01 12:41:46;;;;;;;3.70;1.20;;;;;;;22.77;32.87;96375.41;2063334;28;20840;-62
2022/06/01 12:42:54;;;;;;;2.30;1.30;;;;;;;23.08;32.29;96361.69;2078489;28;20204;-62
2022/06/01 12:43:58;;;;;;;2.50;1.35;;;;;;;23.31;31.90;96370.06;2073862;28;20818;-62
2022/06/01 12:45:06;;;;;;;3.20;1.50;;;;;;;23.84;32.10;96365.56;2070565;28;20348;-63
2022/06/01 12:46:28;;;;;;;5.18;1.85;;;;;;;24.18;31.87;96366.63;2070370;28;20232;-62
2022/06/01 12:47:32;;;;;;;4.07;1.40;;;;;;;22.83;31.79;96364.16;2070364;28;20618;-62
2022/06/01 12:48:34;;;;;;;2.53;1.20;;;;;;;22.52;33.08;96371.66;2069872;28;20209;-62
2022/06/01 12:49:40;;;;;;;5.43;1.40;;;;;;;22.00;33.62;96363.22;2069101;28;20231;-63
2022/06/01 12:50:51;;;;;;;3.25;1.40;;;;;;;21.76;34.53;96365.53;2070664;28;20821;-62
2022/06/01 12:51:56;;;;;;;1.75;1.00;;;;;;;21.90;34.99;96367.72;2069827;28;20229;-62
2022/06/01 12:53:09;;;;;;;5.30;1.50;;;;;;;22.31;34.23;96364.75;2070637;28;20660;-63
2022/06/01 12:54:23;;;;;;;1.50;1.05;;;;;;;22.46;33.50;96373.94;2071260;28;20198;-62
2022/06/01 12:55:24;;;;;;;6.20;1.10;;;;;;;22.69;33.46;96368.19;2069647;28;20198;-62
2022/06/01 12:56:27;;;;;;;8.75;1.45;;;;;;;22.67;32.72;96365.66;2060784;28;20194;-63
2022/06/01 12:57:33;;;;;;;1.38;1.13;;;;;;;22.91;32.76;96360.72;2075419;28;20688;-62
2022/06/01 12:58:35;;;;;;;3.10;1.25;;;;;;;23.23;32.19;96368.19;2073734;28;20580;-63
2022/06/01 12:59:40;;;;;;;2.10;1.48;;;;;;;23.43;31.31;96360.84;2068993;28;20558;-63
2022/06/01 13:00:49;;;;;;;2.22;1.00;;;;;;;23.69;31.48;96362.66;2069897;28;20679;-62
2022/06/01 13:01:56;;;;;;;3.72;1.23;;;;;;;23.35;31.12;96366.13;2063931;28;20743;-63
2022/06/01 13:02:59;;;;;;;2.17;1.20;;;;;;;23.28;31.33;96362.41;2078916;28;20664;-64
2022/06/01 13:04:00;;;;;;;7.57;2.30;;;;;;;23.91;31.28;96353.31;2071362;28;20474;-64
2022/06/01 13:05:05;;;;;;;7.07;2.35;;;;;;;23.98;31.17;96347.34;2072552;28;20550;-63
2022/06/01 13:06:14;;;;;;;10.00;5.80;;;;;;;23.92;31.21;96349.66;2074054;28;20193;-66
2022/06/01 13:07:17;;;;;;;4.25;1.33;;;;;;;23.64;30.93;96348.97;2066291;28;20300;-65
2022/06/01 13:08:23;;;;;;;3.28;1.30;;;;;;;24.10;30.82;96351.41;2078121;28;20220;-71
2022/06/01 13:09:34;;;;;;;4.72;1.30;;;;;;;24.32;31.24;96347.31;2071194;28;20259;-66
2022/06/01 13:10:36;;;;;;;1.10;0.93;;;;;;;24.62;29.96;96345.06;2066285;28;20558;-67
2022/06/01 13:11:38;;;;;;;2.20;1.42;;;;;;;25.00;29.51;96344.63;2066293;28;20202;-66
2022/06/01 13:12:46;;;;;;;1.75;1.17;;;;;;;25.16;29.02;96349.16;2068546;28;20205;-66
2022/06/01 13:14:05;;;;;;;2.00;1.00;;;;;;;25.29;29.40;96341.44;2068698;28;20569;-67
2022/06/01 13:15:17;;;;;;;2.22;1.55;;;;;;;25.35;29.24;96354.13;2070202;28;20198;-67
2022/06/01 13:16:21;;;;;;;1.65;1.52;;;;;;;25.29;29.23;96352.13;2067503;28;20707;-67
2022/06/01 13:17:25;;;;;;;3.20;1.05;;;;;;;25.17;29.41;96356.16;2063295;28;20252;-67
2022/06/01 13:18:30;;;;;;;2.40;1.00;;;;;;;25.22;28.87;96351.16;2072670;28;20202;-67
2022/06/01 13:19:32;;;;;;;1.52;1.10;;;;;;;25.86;28.05;96347.72;2058440;28;20211;-67
2022/06/01 13:20:36;;;;;;;6.60;1.13;;;;;;;25.80;28.58;96351.94;2064812;28;20684;-67
2022/06/01 13:21:38;;;;;;;2.03;1.20;;;;;;;25.68;28.73;96335.41;2062079;28;20195;-67
2022/06/01 13:22:42;;;;;;;3.67;1.33;;;;;;;25.50;29.72;96345.47;2078018;28;20197;-68
2022/06/01 13:23:56;;;;;;;1.85;0.93;;;;;;;25.50;28.85;96351.66;2075988;28;20200;-67
2022/06/01 13:25:13;;;;;;;3.00;1.52;;;;;;;24.00;29.67;96332.88;2066761;28;20685;-66
2022/06/01 13:26:39;;;;;;;2.85;1.17;;;;;;;24.15;29.83;96351.78;2070527;28;20227;-67
2022/06/01 13:27:43;;;;;;;1.83;1.10;;;;;;;24.08;30.70;96346.22;2067524;28;20217;-67
2022/06/01 13:28:46;;;;;;;1.58;1.20;;;;;;;24.31;30.93;96328.81;2068911;28;20768;-67
2022/06/01 13:29:52;;;;;;;4.40;1.23;;;;;;;24.89;30.30;96333.28;2070435;28;20209;-67
2022/06/01 13:30:56;;;;;;;3.45;1.20;;;;;;;24.43;30.69;96333.69;2065996;28;20632;-67
2022/06/01 13:32:08;;;;;;;9.75;1.77;;;;;;;24.35;30.98;96333.63;2065370;28;20714;-68
2022/06/01 13:33:40;;;;;;;3.42;1.40;;;;;;;24.99;30.03;96342.94;2066970;28;20263;-67
2022/06/01 13:34:46;;;;;;;2.38;1.20;;;;;;;25.09;29.91;96336.44;2069886;28;20649;-67
2022/06/01 13:35:54;;;;;;;3.03;1.35;;;;;;;25.64;29.79;96341.28;2068612;28;20197;-67
2022/06/01 13:37:25;;;;;;;1.88;1.15;;;;;;;25.10;29.21;96326.59;2064645;28;20232;-67
2022/06/01 13:38:39;;;;;;;3.42;1.60;;;;;;;25.05;29.33;96323.59;2063277;28;20605;-67
2022/06/01 13:39:54;;;;;;;2.67;1.10;;;;;;;25.88;29.39;96322.47;2051860;28;20206;-66
2022/06/01 13:41:03;;;;;;;2.45;1.00;;;;;;;26.01;28.93;96329.13;2068677;28;20626;-66
2022/06/01 13:42:05;;;;;;;1.70;1.00;;;;;;;25.46;29.77;96320.06;2057453;28;20226;-66
2022/06/01 13:43:10;;;;;;;2.15;1.35;;;;;;;25.55;29.11;96324.41;2060094;28;20225;-66
2022/06/01 13:44:13;;;;;;;4.50;1.15;;;;;;;26.30;28.45;96323.16;2069143;28;20293;-66
2022/06/01 13:45:17;;;;;;;2.65;1.10;;;;;;;26.28;28.28;96317.16;2070998;28;20209;-66
2022/06/01 13:46:40;;;;;;;2.55;1.35;;;;;;;26.67;27.84;96323.47;2068870;28;20251;-67
2022/06/01 13:47:58;;;;;;;1.70;1.10;;;;;;;26.45;27.64;96328.63;2068874;28;20540;-66
2022/06/01 13:49:03;;;;;;;2.17;1.30;;;;;;;26.09;27.89;96321.09;2067641;28;20604;-67
2022/06/01 13:50:25;;;;;;;3.58;1.35;;;;;;;26.00;27.78;96319.44;2070458;28;20550;-67
2022/06/01 13:51:34;;;;;;;3.53;1.08;;;;;;;26.21;27.98;96329.56;2068703;28;20198;-66
2022/06/01 13:52:38;;;;;;;7.30;1.63;;;;;;;25.94;27.94;96320.97;2070740;28;20201;-66
2022/06/01 13:53:43;;;;;;;1.55;1.00;;;;;;;26.24;28.37;96322.03;2071211;28;20705;-66
2022/06/01 13:55:17;;;;;;;4.20;1.35;;;;;;;25.36;29.75;96323.78;2070149;28;20221;-66
2022/06/01 13:56:21;;;;;;;3.85;1.25;;;;;;;25.61;29.14;96329.09;2067773;28;20609;-68
2022/06/01 13:57:24;;;;;;;3.13;1.27;;;;;;;26.07;29.04;96323.94;2057919;28;20244;-68
2022/06/01 13:58:31;;;;;;;1.83;1.35;;;;;;;25.89;28.84;96321.47;2070736;28;20217;-67
2022/06/01 13:59:35;;;;;;;2.65;1.20;;;;;;;26.04;29.03;96318.06;2069675;28;20201;-67
2022/06/01 14:01:01;;;;;;;2.85;1.23;;;;;;;25.50;29.03;96322.25;2070001;28;20198;-67
2022/06/01 14:02:12;;;;;;;4.30;1.40;;;;;;;25.22;29.17;96330.59;2066409;28;20232;-67
2022/06/01 14:03:32;;;;;;;3.00;1.05;;;;;;;25.83;28.68;96326.69;2078173;28;20253;-67
2022/06/01 14:04:45;;;;;;;3.25;0.93;;;;;;;25.65;28.62;96319.72;2070908;28;20731;-67
2022/06/01 14:05:48;;;;;;;3.13;1.25;;;;;;;25.68;28.86;96321.22;2070159;28;20624;-68
2022/06/01 14:07:03;;;;;;;4.40;1.38;;;;;;;25.03;29.21;96328.28;2064013;28;20228;-67
2022/06/01 14:08:09;;;;;;;2.28;1.17;;;;;;;24.42;30.21;96315.16;2073611;28;20244;-67
2022/06/01 14:09:23;;;;;;;3.28;2.20;;;;;;;24.29;30.50;96311.13;2071480;28;20234;-68
2022/06/01 14:10:46;;;;;;;4.03;3.08;;;;;;;24.33;30.26;96324.97;2070896;28;20204;-67
2022/06/01 14:11:47;;;;;;;3.92;1.85;;;;;;;24.74;30.27;96322.41;2067255;28;20321;-66
2022/06/01 14:12:50;;;;;;;3.00;1.00;;;;;;;25.02;29.14;96331.94;2068719;28;20227;-66
2022/06/01 14:13:52;;;;;;;3.47;1.20;;;;;;;24.99;29.04;96308.22;2071083;28;21100;-66
2022/06/01 14:14:56;;;;;;;3.97;1.17;;;;;;;25.13;29.69;96320.09;2070828;28;20205;-66
2022/06/01 14:15:58;;;;;;;3.35;1.17;;;;;;;24.88;29.78;96322.75;2070689;28;20198;-66
2022/06/01 14:17:00;;;;;;;6.85;2.00;;;;;;;24.45;30.38;96318.34;2065275;28;20270;-64
2022/06/01 14:18:12;;;;;;;2.67;1.25;;;;;;;24.41;30.46;96326.84;2078337;28;20778;-64
2022/06/01 14:19:13;;;;;;;1.80;1.15;;;;;;;24.55;30.45;96326.19;2071901;28;20201;-64
2022/06/01 14:20:15;;;;;;;3.65;1.30;;;;;;;24.73;30.42;96319.91;2070529;28;20900;-65
2022/06/01 14:21:16;;;;;;;2.78;1.20;;;;;;;24.93;30.30;96312.41;2071043;28;20202;-66
2022/06/01 14:22:18;;;;;;;2.75;0.90;;;;;;;25.18;30.59;96320.41;2067441;28;20260;-66
2022/06/01 14:23:20;;;;;;;4.88;1.23;;;;;;;24.45;31.24;96305.00;2079689;28;20193;-65
2022/06/01 14:24:24;;;;;;;2.70;1.25;;;;;;;24.50;30.82;96315.16;2073101;28;20553;-66
2022/06/01 14:29:25;;;;;;;6.38;1.00;;;;;;;25.48;28.79;96318.06;2071944;28;20204;-66
2022/06/01 14:30:27;;;;;;;2.30;1.45;;;;;;;25.32;28.72;96318.91;2072275;28;20553;-66
2022/06/01 14:31:33;;;;;;;7.03;1.10;;;;;;;25.07;29.00;96319.75;2071863;28;20276;-66
2022/06/01 14:32:38;;;;;;;2.15;1.30;;;;;;;24.29;29.96;96303.13;2071844;28;20252;-66
2022/06/01 14:33:42;;;;;;;2.45;1.40;;;;;;;24.29;31.22;96313.78;2072189;28;20201;-66
2022/06/01 14:34:43;;;;;;;3.70;1.15;;;;;;;25.03;30.60;96323.75;2071227;28;20209;-65
2022/06/01 14:35:45;;;;;;;2.95;1.10;;;;;;;25.13;29.83;96322.75;2063849;28;20195;-66
2022/06/01 14:36:46;;;;;;;4.05;1.67;;;;;;;25.04;29.62;96329.94;2050619;28;20241;-67
2022/06/01 14:37:48;;;;;;;5.28;1.42;;;;;;;25.12;29.70;96324.59;2077946;28;20200;-66
2022/06/01 14:38:50;;;;;;;1.38;1.08;;;;;;;24.66;29.18;96325.09;2076335;28;20227;-66
2022/06/01 14:39:52;;;;;;;8.20;1.20;;;;;;;24.76;29.77;96331.09;2071286;28;20213;-66
2022/06/01 14:40:58;;;;;;;4.60;1.48;;;;;;;24.54;29.23;96321.03;2067743;28;20191;-67
2022/06/01 14:42:07;;;;;;;12.38;2.13;;;;;;;24.87;29.67;96316.56;2057791;28;20773;-66
2022/06/01 14:43:09;;;;;;;1.70;1.00;;;;;;;25.07;29.42;96324.28;2079069;28;20197;-66
2022/06/01 14:44:14;;;;;;;4.93;1.33;;;;;;;25.45;28.57;96324.59;2070177;28;20197;-66
2022/06/01 14:45:16;;;;;;;1.45;1.00;;;;;;;25.03;29.12;96318.44;2070810;28;20209;-66
2022/06/01 14:46:17;;;;;;;2.50;1.00;;;;;;;24.32;29.50;96304.63;2071155;28;20213;-66
2022/06/01 14:47:22;;;;;;;1.77;1.10;;;;;;;24.79;29.97;96324.59;2069553;28;20232;-66
2022/06/01 14:48:24;;;;;;;2.85;1.20;;;;;;;25.40;29.63;96317.06;2070411;28;20720;-66
2022/06/01 14:49:25;;;;;;;7.30;1.38;;;;;;;25.25;29.35;96314.25;2069729;28;20194;-67
2022/06/01 14:50:27;;;;;;;6.97;1.27;;;;;;;25.48;29.89;96324.25;2071792;28;20198;-66
2022/06/01 14:51:32;;;;;;;3.53;1.42;;;;;;;25.53;29.38;96319.22;2070400;28;20550;-67
2022/06/01 14:52:34;;;;;;;2.80;1.35;;;;;;;25.62;29.18;96327.25;2069683;28;20564;-67
2022/06/01 14:53:38;;;;;;;6.55;1.30;;;;;;;25.29;29.64;96320.06;2064873;28;20199;-67
2022/06/01 14:54:41;;;;;;;2.38;0.90;;;;;;;25.20;29.13;96323.75;2063802;28;20206;-64
2022/06/01 14:55:42;;;;;;;5.40;1.30;;;;;;;25.55;29.26;96325.25;2065893;28;20651;-67
2022/06/01 14:56:43;;;;;;;1.70;1.10;;;;;;;25.17;29.49;96324.09;2056744;28;20725;-67
2022/06/01 14:57:45;;;;;;;5.70;1.30;;;;;;;24.87;29.31;96329.09;2078660;28;20204;-67
2022/06/01 14:58:47;;;;;;;4.47;1.17;;;;;;;24.33;29.87;96321.47;2076654;28;20213;-67
2022/06/01 14:59:49;;;;;;;3.47;1.10;;;;;;;24.65;29.55;96320.75;2070674;28;20205;-67
2022/06/01 15:00:51;;;;;;;1.40;1.02;;;;;;;24.67;30.04;96325.91;2070499;28;20197;-67
2022/06/01 15:01:56;;;;;;;2.60;0.90;;;;;;;24.39;29.59;96326.16;2064338;28;20257;-67
2022/06/01 15:02:58;;;;;;;3.08;1.30;;;;;;;24.66;30.04;96322.41;2075702;28;20281;-67
2022/06/01 15:04:01;;;;;;;3.85;1.48;;;;;;;25.18;29.61;96331.94;2074718;28;20217;-67